createdAt,value
2022-12-29T18:09:48.889Z,1003.01
2022-12-29T18:10:48.865Z,1002.98
2022-12-29T18:11:48.845Z,1003.02
2022-12-29T18:12:48.841Z,1003.02
2022-12-29T18:13:48.826Z,1003.04
2022-12-29T18:14:48.830Z,1003.08
2022-12-29T18:15:48.846Z,1003.08
2022-12-29T18:16:48.794Z,1003.10
2022-12-29T18:17:48.791Z,1003.09
2022-12-29T18:18:48.774Z,1003.13
2022-12-29T18:19:48.786Z,1003.14
2022-12-29T18:20:48.760Z,1003.17
2022-12-29T18:21:48.738Z,1003.18
2022-12-29T18:22:48.748Z,1003.21
2022-12-29T18:23:48.773Z,1003.22
2022-12-29T18:24:48.717Z,1003.22
2022-12-29T18:25:48.699Z,1003.26
2022-12-29T18:26:48.786Z,1003.23
2022-12-29T18:27:48.692Z,1003.25
2022-12-29T18:28:48.679Z,1003.22
2022-12-29T18:29:48.728Z,1003.29
2022-12-29T18:30:48.708Z,1003.25
2022-12-29T18:31:48.678Z,1003.33
2022-12-29T18:32:48.646Z,1003.32
2022-12-29T18:33:48.619Z,1003.35
2022-12-29T18:34:48.619Z,1003.37
2022-12-29T18:35:48.591Z,1003.30
2022-12-29T18:36:48.587Z,1003.31
2022-12-29T18:37:48.581Z,1003.34
2022-12-29T18:38:48.597Z,1003.29
2022-12-29T18:39:48.575Z,1003.27
2022-12-29T18:40:48.567Z,1003.29
2022-12-29T18:41:48.529Z,1003.33
2022-12-29T18:42:48.532Z,1003.30
2022-12-29T18:43:48.502Z,1003.33
2022-12-29T18:44:48.515Z,1003.30
2022-12-29T18:45:48.492Z,1003.35
2022-12-29T18:46:48.506Z,1003.34
2022-12-29T18:47:48.460Z,1003.35
2022-12-29T18:48:48.452Z,1003.35
2022-12-29T18:49:48.463Z,1003.38
2022-12-29T18:50:48.465Z,1003.42
2022-12-29T18:51:48.429Z,1003.47
2022-12-29T18:52:48.423Z,1003.45
2022-12-29T18:53:48.435Z,1003.52
2022-12-29T18:54:48.404Z,1003.49
2022-12-29T18:55:48.405Z,1003.50
2022-12-29T18:56:48.372Z,1003.48
2022-12-29T18:57:48.360Z,1003.47
2022-12-29T18:58:48.348Z,1003.51
2022-12-29T18:59:48.344Z,1003.57
2022-12-29T19:00:48.387Z,1003.58
2022-12-29T19:01:48.316Z,1003.61
2022-12-29T19:02:48.357Z,1003.59
2022-12-29T19:03:48.286Z,1003.64
2022-12-29T19:04:52.865Z,1003.68
2022-12-29T19:05:49.267Z,1003.64
2022-12-29T19:06:48.299Z,1003.71
2022-12-29T19:07:48.250Z,1003.68
2022-12-29T19:08:48.263Z,1003.70
2022-12-29T19:09:48.234Z,1003.76
2022-12-29T19:10:48.225Z,1003.77
2022-12-29T19:11:48.209Z,1003.82
2022-12-29T19:12:48.207Z,1003.86
2022-12-29T19:13:48.219Z,1003.92
2022-12-29T19:14:48.187Z,1003.90
2022-12-29T19:15:48.188Z,1003.86
2022-12-29T19:16:48.206Z,1003.78
2022-12-29T19:18:01.953Z,1003.77
2022-12-29T19:19:07.396Z,1003.77
2022-12-29T19:19:49.127Z,1003.75
2022-12-29T19:20:48.118Z,1003.75
2022-12-29T19:21:48.095Z,1003.76
2022-12-29T19:22:48.088Z,1003.80
2022-12-29T19:23:48.070Z,1003.84
2022-12-29T19:24:48.067Z,1003.80
2022-12-29T19:25:48.066Z,1003.78
2022-12-29T19:26:48.047Z,1003.84
2022-12-29T19:27:48.031Z,1003.86
2022-12-29T19:28:48.017Z,1003.85
2022-12-29T19:29:48.008Z,1003.82
2022-12-29T19:30:51.886Z,1003.84
2022-12-29T19:31:48.022Z,1003.85
2022-12-29T19:32:47.980Z,1003.82
2022-12-29T19:33:47.959Z,1003.83
2022-12-29T19:34:47.960Z,1003.81
2022-12-29T19:35:48.166Z,1003.80
2022-12-29T19:36:47.958Z,1003.84
2022-12-29T19:37:47.920Z,1003.83
2022-12-29T19:38:47.933Z,1003.91
2022-12-29T19:39:47.899Z,1003.90
2022-12-29T19:40:47.921Z,1003.93
2022-12-29T19:41:47.880Z,1003.92
2022-12-29T19:42:47.869Z,1003.86
2022-12-29T19:43:47.860Z,1003.87
2022-12-29T19:44:47.863Z,1003.85
2022-12-29T19:45:47.890Z,1003.84
2022-12-29T19:46:47.881Z,1003.87
2022-12-29T19:47:47.850Z,1003.86
2022-12-29T19:48:47.834Z,1003.93
2022-12-29T19:49:47.812Z,1003.93
2022-12-29T19:50:47.808Z,1003.96
2022-12-29T19:51:47.801Z,1003.97
2022-12-29T19:52:47.763Z,1004.00
2022-12-29T19:53:47.753Z,1003.97
2022-12-29T19:54:47.746Z,1003.98
2022-12-29T19:55:47.788Z,1003.97
